createdAt,value
2019-02-10T00:00:53.905Z,54.23
2019-02-10T00:03:22.506Z,52.00
2019-02-10T00:05:51.029Z,51.50
2019-02-10T00:08:20.352Z,52.13
2019-02-10T00:10:49.690Z,52.87
2019-02-10T00:13:38.382Z,53.10
2019-02-10T00:16:10.355Z,47.00
2019-02-10T00:18:38.856Z,49.50
2019-02-10T00:21:07.371Z,44.00
2019-02-10T00:23:36.682Z,47.93
2019-02-10T00:26:06.021Z,47.67
2019-02-10T00:28:34.545Z,48.33
2019-02-10T00:31:03.896Z,51.57
2019-02-10T00:33:33.208Z,49.13
2019-02-10T00:36:02.514Z,41.70
2019-02-10T00:38:31.834Z,40.17
2019-02-10T00:41:01.181Z,40.67
2019-02-10T00:43:30.488Z,40.47
2019-02-10T00:45:59.791Z,38.37
2019-02-10T00:48:29.146Z,36.53
2019-02-10T00:50:58.690Z,43.40
2019-02-10T00:53:27.098Z,43.77
2019-02-10T00:55:55.623Z,43.50
2019-02-10T00:58:24.126Z,49.60
2019-02-10T01:00:53.646Z,45.97
2019-02-10T01:06:01.527Z,43.63
2019-02-10T01:08:30.130Z,42.37
2019-02-10T01:10:59.432Z,45.17
2019-02-10T01:13:28.071Z,43.40
2019-02-10T01:15:57.384Z,42.30
2019-02-10T01:21:28.525Z,39.67
2019-02-10T01:23:57.930Z,43.77
2019-02-10T01:26:26.436Z,47.27
2019-02-10T01:28:55.791Z,42.43
2019-02-10T01:34:07.787Z,43.63
2019-02-10T01:36:36.292Z,40.90
2019-02-10T01:39:12.042Z,42.97
2019-02-10T01:41:40.671Z,43.70
2019-02-10T01:44:09.197Z,36.73
2019-02-10T01:46:37.704Z,35.53
2019-02-10T01:49:07.019Z,33.67
2019-02-10T01:51:36.324Z,36.70
2019-02-10T01:54:05.695Z,36.33
2019-02-10T01:56:35.167Z,37.77
2019-02-10T02:02:07.233Z,45.10
2019-02-10T02:04:36.540Z,37.10
2019-02-10T02:07:05.053Z,42.73
2019-02-10T02:09:34.416Z,37.93
2019-02-10T02:14:58.405Z,42.13
2019-02-10T02:17:27.713Z,48.17
2019-02-10T02:19:57.013Z,44.00
2019-02-10T02:25:28.595Z,48.87
2019-02-10T02:27:57.928Z,45.63
2019-02-10T02:30:27.245Z,45.87
2019-02-10T02:32:56.549Z,42.00
2019-02-10T02:35:25.864Z,45.10
2019-02-10T02:37:55.170Z,46.17
2019-02-10T02:40:24.479Z,44.97
2019-02-10T02:42:53.775Z,48.17
2019-02-10T02:45:22.299Z,41.17
2019-02-10T02:47:51.615Z,50.70
2019-02-10T02:50:20.931Z,45.83
2019-02-10T02:52:50.238Z,49.53
2019-02-10T02:55:19.557Z,50.20
2019-02-10T02:57:48.851Z,51.53
2019-02-10T03:00:18.175Z,52.77
2019-02-10T03:02:47.535Z,62.37
2019-02-10T03:05:16.867Z,65.27
2019-02-10T03:07:45.454Z,65.60
2019-02-10T03:13:16.110Z,62.73
2019-02-10T03:18:53.060Z,66.67
2019-02-10T03:21:16.940Z,67.40
2019-02-10T03:26:48.195Z,75.43
2019-02-10T03:29:16.712Z,71.80
2019-02-10T03:34:47.451Z,42.23
2019-02-10T03:37:15.949Z,47.47
2019-02-10T03:42:46.686Z,51.27
2019-02-10T03:48:17.909Z,54.43
2019-02-10T03:53:49.290Z,43.03
2019-02-10T03:56:17.699Z,41.97
2019-02-10T03:58:47.012Z,46.07
2019-02-10T04:01:16.345Z,37.40
2019-02-10T04:03:45.715Z,37.93
2019-02-10T04:06:14.989Z,38.03
2019-02-10T04:08:44.288Z,39.73
2019-02-10T04:11:13.601Z,43.03
2019-02-10T04:13:42.926Z,41.20
2019-02-10T04:16:12.238Z,42.03
2019-02-10T04:18:40.745Z,40.80
2019-02-10T04:24:11.963Z,50.47
2019-02-10T04:26:40.469Z,46.30
2019-02-10T04:32:11.348Z,43.03
2019-02-10T04:37:45.975Z,42.27
2019-02-10T04:40:31.810Z,38.53
2019-02-10T04:46:03.047Z,40.53
2019-02-10T04:48:31.676Z,42.00
2019-02-10T04:54:02.494Z,49.37
2019-02-10T04:59:33.734Z,50.80
2019-02-10T05:02:03.155Z,50.63
2019-02-10T05:07:34.144Z,48.27
2019-02-10T05:10:04.091Z,59.17
2019-02-10T05:12:32.700Z,59.37
2019-02-10T05:18:04.064Z,51.17
2019-02-10T05:23:34.945Z,45.87
2019-02-10T05:26:04.266Z,44.90
2019-02-10T05:31:16.010Z,58.20
2019-02-10T05:33:45.332Z,48.57
2019-02-10T05:39:16.201Z,46.57
2019-02-10T05:41:45.498Z,55.60
2019-02-10T05:44:14.143Z,50.13
2019-02-10T05:52:27.462Z,46.57
2019-02-10T05:54:56.815Z,49.00
2019-02-10T05:57:26.121Z,52.97
2019-02-10T05:59:55.429Z,44.23
2019-02-10T06:02:33.393Z,57.60
2019-02-10T06:05:23.870Z,47.70
2019-02-10T06:07:53.196Z,64.07
2019-02-10T06:10:22.499Z,44.50
2019-02-10T06:12:51.881Z,45.60
2019-02-10T06:15:21.198Z,47.27
2019-02-10T06:17:50.506Z,49.83
2019-02-10T06:20:19.822Z,46.13
2019-02-10T06:22:49.142Z,45.00
2019-02-10T06:25:17.659Z,39.57
2019-02-10T06:27:46.964Z,46.13
2019-02-10T06:30:16.281Z,45.50
2019-02-10T06:32:45.598Z,51.20
2019-02-10T06:35:14.911Z,51.73
2019-02-10T06:37:44.219Z,49.37
2019-02-10T06:40:13.522Z,48.97
2019-02-10T06:45:44.975Z,54.77
2019-02-10T06:48:14.286Z,55.27
2019-02-10T06:50:43.685Z,62.73
2019-02-10T06:53:12.998Z,54.00
2019-02-10T06:55:42.304Z,50.20
2019-02-10T06:58:10.724Z,64.80
2019-02-10T07:04:07.683Z,62.33
2019-02-10T07:06:37.129Z,54.73
2019-02-10T07:09:06.540Z,52.20
2019-02-10T07:17:45.291Z,59.43
2019-02-10T07:20:53.336Z,59.97
2019-02-10T07:24:00.686Z,66.73
2019-02-10T07:30:20.207Z,77.80
2019-02-10T07:32:49.738Z,65.23
2019-02-10T07:35:56.991Z,67.07
2019-02-10T07:38:49.711Z,70.10
2019-02-10T07:41:56.857Z,67.10
2019-02-10T07:44:48.373Z,58.80
2019-02-10T07:47:56.471Z,54.20
2019-02-10T07:50:52.151Z,53.47
2019-02-10T07:53:59.289Z,51.73
2019-02-10T07:56:59.559Z,49.50
2019-02-10T08:00:07.594Z,49.47
2019-02-10T08:03:14.830Z,57.00
2019-02-10T08:06:15.440Z,51.23
2019-02-10T08:09:08.675Z,50.37
2019-02-10T08:12:03.130Z,54.43
2019-02-10T08:15:11.231Z,55.67
2019-02-10T08:18:07.564Z,44.27
2019-02-10T08:21:07.424Z,43.90
2019-02-10T08:24:14.771Z,44.07
2019-02-10T08:27:22.024Z,60.33
2019-02-10T08:30:29.287Z,43.33
2019-02-10T08:33:36.527Z,45.27
2019-02-10T08:36:43.764Z,38.33
2019-02-10T08:39:53.129Z,44.23
2019-02-10T08:42:43.596Z,38.87
2019-02-10T08:45:51.693Z,45.47
2019-02-10T08:48:59.719Z,41.77
2019-02-10T08:52:07.026Z,46.57
2019-02-10T08:54:35.530Z,51.57
2019-02-10T08:57:04.863Z,46.37
2019-02-10T08:59:34.178Z,50.13
2019-02-10T09:02:03.499Z,51.43
2019-02-10T09:04:32.817Z,47.23
2019-02-10T09:07:01.321Z,47.33
2019-02-10T09:09:29.878Z,49.07
2019-02-10T09:12:07.327Z,49.07
2019-02-10T09:14:35.806Z,41.70
2019-02-10T09:17:05.114Z,44.57
2019-02-10T09:19:34.500Z,37.03
2019-02-10T09:22:03.933Z,44.97
2019-02-10T09:24:32.438Z,36.33
2019-02-10T09:27:01.751Z,37.77
2019-02-10T09:29:30.358Z,36.93
2019-02-10T09:31:58.768Z,31.17
2019-02-10T09:34:28.093Z,37.73
2019-02-10T09:36:57.425Z,38.07
2019-02-10T09:39:26.750Z,34.97
2019-02-10T09:41:56.051Z,37.40
2019-02-10T09:44:25.370Z,35.60
2019-02-10T09:46:54.706Z,31.87
2019-02-10T09:49:24.016Z,32.93
2019-02-10T09:51:52.423Z,36.13
2019-02-10T09:54:20.952Z,34.03
2019-02-10T09:56:50.275Z,33.40
2019-02-10T09:59:19.572Z,33.47
2019-02-10T10:01:48.895Z,32.63
2019-02-10T10:04:18.206Z,28.97
2019-02-10T10:06:47.602Z,31.13
2019-02-10T10:09:19.291Z,31.03
2019-02-10T10:12:06.115Z,28.00
2019-02-10T10:14:35.421Z,27.07
2019-02-10T10:17:03.936Z,29.57
2019-02-10T10:19:33.268Z,31.37
2019-02-10T10:22:01.686Z,29.13
2019-02-10T10:24:30.999Z,24.80
2019-02-10T10:27:00.323Z,28.10
2019-02-10T10:29:29.662Z,25.83
2019-02-10T10:31:58.061Z,26.27
2019-02-10T10:34:26.582Z,27.83
2019-02-10T10:36:55.885Z,27.63
2019-02-10T10:39:27.505Z,27.77
2019-02-10T10:41:54.806Z,28.33
2019-02-10T10:44:23.352Z,29.53
2019-02-10T10:46:52.670Z,29.87
2019-02-10T10:49:21.991Z,29.13
2019-02-10T10:51:51.328Z,28.57
2019-02-10T10:54:20.650Z,27.73
2019-02-10T10:56:49.954Z,28.47
2019-02-10T11:02:02.645Z,28.30
2019-02-10T11:04:31.956Z,27.63
2019-02-10T11:07:01.270Z,22.93
2019-02-10T11:09:35.548Z,25.10
2019-02-10T11:12:19.893Z,24.93
2019-02-10T11:14:48.406Z,25.17
2019-02-10T11:17:17.730Z,23.20
2019-02-10T11:19:46.257Z,30.13
2019-02-10T11:22:15.598Z,26.27
2019-02-10T11:24:45.008Z,27.90
2019-02-10T11:27:14.327Z,27.37
2019-02-10T11:29:43.660Z,26.47
2019-02-10T11:32:12.176Z,24.40
2019-02-10T11:34:46.169Z,23.30
2019-02-10T11:37:31.190Z,25.73
2019-02-10T11:39:59.732Z,21.03
2019-02-10T11:42:28.142Z,21.20
2019-02-10T11:44:57.457Z,21.30
2019-02-10T11:47:26.762Z,21.63
2019-02-10T11:49:56.081Z,21.83
2019-02-10T11:52:25.399Z,22.50
2019-02-10T11:54:54.721Z,22.33
2019-02-10T11:57:23.228Z,20.93
2019-02-10T11:59:51.734Z,19.63
2019-02-10T12:02:20.649Z,20.60
2019-02-10T12:04:49.167Z,20.83
2019-02-10T12:07:18.490Z,21.03
2019-02-10T12:09:51.695Z,21.73
2019-02-10T12:12:37.137Z,25.07
2019-02-10T12:15:07.375Z,21.40
2019-02-10T12:17:36.008Z,22.33
2019-02-10T12:20:05.527Z,24.73
2019-02-10T12:22:34.845Z,18.83
2019-02-10T12:25:04.770Z,23.00
2019-02-10T12:30:35.166Z,22.97
2019-02-10T12:33:03.690Z,22.33
2019-02-10T12:35:33.015Z,20.27
2019-02-10T12:38:02.341Z,21.40
2019-02-10T12:40:30.865Z,22.93
2019-02-10T12:43:00.185Z,18.50
2019-02-10T12:45:29.502Z,18.90
2019-02-10T12:47:58.834Z,24.57
2019-02-10T12:53:29.434Z,21.03
2019-02-10T12:55:58.756Z,20.03
2019-02-10T12:58:28.161Z,20.27
2019-02-10T13:00:57.483Z,19.00
2019-02-10T13:03:26.912Z,20.90
2019-02-10T13:05:56.244Z,18.93
2019-02-10T13:08:45.948Z,18.77
2019-02-10T13:11:15.267Z,17.37
2019-02-10T13:16:46.667Z,16.97
2019-02-10T13:19:15.208Z,19.07
2019-02-10T13:21:44.523Z,17.87
2019-02-10T13:24:13.843Z,17.80
2019-02-10T13:26:43.165Z,17.90
2019-02-10T13:29:12.848Z,19.83
2019-02-10T13:32:01.716Z,21.43
2019-02-10T13:34:31.031Z,17.63
2019-02-10T13:36:59.582Z,17.43
2019-02-10T13:39:28.090Z,18.33
2019-02-10T13:41:55.518Z,22.30
2019-02-10T13:44:24.834Z,19.10
2019-02-10T13:46:54.161Z,20.67
2019-02-10T13:49:22.678Z,20.70
2019-02-10T13:51:52.000Z,20.40
2019-02-10T13:54:21.318Z,20.70
2019-02-10T13:56:50.643Z,22.63
2019-02-10T13:59:19.060Z,23.10
2019-02-10T14:01:48.401Z,17.27
2019-02-10T14:04:17.823Z,17.37
2019-02-10T14:06:47.146Z,18.63
2019-02-10T14:09:16.526Z,21.70
2019-02-10T14:11:45.803Z,20.40
2019-02-10T14:14:15.126Z,22.00
2019-02-10T14:16:44.481Z,22.20
2019-02-10T14:19:13.789Z,23.40
2019-02-10T14:21:43.120Z,19.50
2019-02-10T14:24:12.456Z,18.97
2019-02-10T14:26:41.772Z,20.63
2019-02-10T14:29:10.190Z,16.10
2019-02-10T14:31:38.817Z,20.27
2019-02-10T14:34:08.138Z,18.47
2019-02-10T14:36:37.462Z,19.37
2019-02-10T14:39:06.783Z,19.67
2019-02-10T14:41:36.176Z,19.90
2019-02-10T14:44:05.510Z,21.53
2019-02-10T14:46:34.037Z,20.20
2019-02-10T14:49:02.555Z,21.27
2019-02-10T14:51:31.072Z,19.60
2019-02-10T14:54:00.397Z,21.53
2019-02-10T14:56:29.749Z,20.17
2019-02-10T14:58:59.089Z,28.37
2019-02-10T15:01:28.413Z,29.17
2019-02-10T15:03:57.744Z,27.03
2019-02-10T15:06:27.071Z,28.20
2019-02-10T15:08:56.405Z,24.87
2019-02-10T15:11:25.019Z,26.63
2019-02-10T15:13:54.346Z,32.40
2019-02-10T15:16:23.667Z,42.70
2019-02-10T15:21:54.600Z,37.03
2019-02-10T15:24:23.924Z,36.90
2019-02-10T15:26:52.428Z,38.17
2019-02-10T15:29:21.758Z,34.53
2019-02-10T15:31:51.207Z,36.63
2019-02-10T15:34:20.529Z,33.57
2019-02-10T15:36:49.839Z,45.63
2019-02-10T15:39:19.174Z,44.13
2019-02-10T15:41:48.507Z,36.30
2019-02-10T15:44:17.821Z,45.03
2019-02-10T15:46:46.241Z,52.97
2019-02-10T15:49:15.570Z,59.80
2019-02-10T15:51:44.893Z,42.80
2019-02-10T15:54:14.209Z,34.93
2019-02-10T15:56:43.534Z,30.23
2019-02-10T15:59:12.845Z,106.40
2019-02-10T16:01:42.172Z,69.53
2019-02-10T16:04:11.494Z,52.03
2019-02-10T16:06:40.831Z,37.23
2019-02-10T16:09:10.153Z,37.50
2019-02-10T16:11:39.468Z,42.37
2019-02-10T16:14:08.792Z,31.50
2019-02-10T16:16:37.258Z,35.93
2019-02-10T16:22:12.334Z,39.63
2019-02-10T16:24:41.663Z,43.13
2019-02-10T16:27:10.974Z,43.07
2019-02-10T16:29:39.738Z,33.30
2019-02-10T16:32:08.357Z,34.90
2019-02-10T16:34:37.684Z,30.00
2019-02-10T16:37:07.037Z,46.63
2019-02-10T16:39:36.353Z,49.20
2019-02-10T16:42:05.672Z,49.63
2019-02-10T16:44:35.119Z,52.13
2019-02-10T16:47:04.473Z,57.40
2019-02-10T16:49:33.086Z,66.73
2019-02-10T16:52:02.932Z,102.63
2019-02-10T16:54:31.536Z,80.83
2019-02-10T16:57:00.051Z,59.43
2019-02-10T16:59:29.472Z,48.27
2019-02-10T17:01:58.797Z,64.33
2019-02-10T17:04:28.127Z,82.53
2019-02-10T17:06:57.442Z,81.10
2019-02-10T17:09:27.727Z,70.70
2019-02-10T17:12:15.977Z,62.77
2019-02-10T17:14:45.305Z,71.83
2019-02-10T17:17:14.621Z,61.43
2019-02-10T17:19:43.967Z,58.30
2019-02-10T17:22:13.423Z,58.83
2019-02-10T17:24:41.946Z,63.50
2019-02-10T17:27:11.378Z,56.93
2019-02-10T17:29:40.706Z,58.37
2019-02-10T17:32:10.060Z,52.37
2019-02-10T17:34:39.377Z,49.20
2019-02-10T17:37:08.711Z,51.07
2019-02-10T17:39:38.491Z,52.93
2019-02-10T17:42:07.817Z,52.40
2019-02-10T17:44:37.138Z,48.10
2019-02-10T17:47:06.459Z,57.43
2019-02-10T17:49:34.908Z,66.43
2019-02-10T17:52:03.524Z,122.17
2019-02-10T17:54:32.880Z,94.07
2019-02-10T17:57:02.202Z,67.10
2019-02-10T17:59:31.526Z,61.70
2019-02-10T18:02:00.888Z,54.93
2019-02-10T18:04:37.393Z,45.13
2019-02-10T18:07:19.400Z,46.63
2019-02-10T18:09:48.715Z,49.90
2019-02-10T18:12:18.030Z,52.93
2019-02-10T18:14:58.755Z,55.43
2019-02-10T18:17:46.739Z,59.57
2019-02-10T18:20:21.838Z,48.00
2019-02-10T18:23:10.620Z,54.93
2019-02-10T18:25:58.650Z,46.03
2019-02-10T18:28:47.489Z,47.20
2019-02-10T18:31:36.281Z,46.87
2019-02-10T18:34:25.073Z,51.77
2019-02-10T18:37:13.102Z,39.37
2019-02-10T18:39:49.506Z,44.43
2019-02-10T18:42:37.497Z,45.20
2019-02-10T18:45:25.592Z,41.20
2019-02-10T18:48:13.647Z,43.77
2019-02-10T18:51:02.498Z,47.13
2019-02-10T18:53:51.267Z,55.53
2019-02-10T18:56:39.263Z,52.90
2019-02-10T18:59:27.302Z,47.50
2019-02-10T19:02:03.066Z,46.83
2019-02-10T19:04:51.851Z,50.00
2019-02-10T19:07:39.833Z,68.70
2019-02-10T19:10:27.983Z,54.73
2019-02-10T19:13:15.966Z,46.27
2019-02-10T19:16:03.950Z,47.43
2019-02-10T19:18:52.048Z,37.20
2019-02-10T19:21:36.257Z,44.50
2019-02-10T19:24:25.041Z,48.90
2019-02-10T19:27:13.138Z,52.47
2019-02-10T19:30:00.994Z,54.90
2019-02-10T19:32:49.816Z,52.97
2019-02-10T19:35:37.807Z,44.87
2019-02-10T19:38:25.795Z,47.80
2019-02-10T19:41:13.781Z,39.23
2019-02-10T19:43:53.108Z,40.83
2019-02-10T19:46:41.092Z,40.93
2019-02-10T19:49:29.071Z,48.47
2019-02-10T19:52:05.198Z,43.83
2019-02-10T19:54:53.181Z,41.67
2019-02-10T19:57:41.266Z,50.73
2019-02-10T20:00:26.369Z,47.00
2019-02-10T20:03:15.213Z,43.77
2019-02-10T20:06:04.008Z,42.30
2019-02-10T20:08:52.200Z,40.67
2019-02-10T20:11:40.088Z,39.80
2019-02-10T20:14:28.072Z,41.67
2019-02-10T20:17:16.059Z,43.47
2019-02-10T20:20:04.044Z,44.67
2019-02-10T20:22:52.026Z,46.57
2019-02-10T20:25:40.857Z,54.03
2019-02-10T20:28:29.681Z,46.57
2019-02-10T20:31:18.473Z,45.83
2019-02-10T20:34:06.453Z,49.67
2019-02-10T20:36:54.383Z,46.93
2019-02-10T20:39:42.351Z,45.67
2019-02-10T20:42:30.344Z,46.90
2019-02-10T20:45:18.214Z,48.37
2019-02-10T20:48:06.190Z,46.30
2019-02-10T20:50:54.173Z,44.63
2019-02-10T20:53:42.148Z,44.07
2019-02-10T20:56:30.173Z,51.00
2019-02-10T20:59:08.114Z,62.63
2019-02-10T21:01:45.092Z,58.27
2019-02-10T21:04:33.067Z,52.50
2019-02-10T21:07:21.046Z,58.90
2019-02-10T21:10:09.842Z,56.20
2019-02-10T21:12:58.023Z,57.07
2019-02-10T21:15:45.955Z,50.57
2019-02-10T21:18:33.839Z,50.43
2019-02-10T21:21:21.818Z,49.03
2019-02-10T21:24:09.694Z,50.87
2019-02-10T21:26:57.676Z,52.50
2019-02-10T21:29:45.558Z,49.80
2019-02-10T21:32:23.164Z,52.17
2019-02-10T21:35:11.954Z,55.23
2019-02-10T21:37:59.936Z,52.43
2019-02-10T21:40:33.937Z,50.37
2019-02-10T21:43:21.935Z,54.63
2019-02-10T21:46:09.948Z,54.00
2019-02-10T21:48:57.978Z,54.50
2019-02-10T21:51:27.284Z,52.60
2019-02-10T21:53:56.594Z,58.30
2019-02-10T21:56:25.903Z,52.83
2019-02-10T21:58:55.211Z,56.10
2019-02-10T22:01:24.523Z,57.47
2019-02-10T22:03:53.867Z,56.90
2019-02-10T22:06:23.187Z,58.00
2019-02-10T22:08:51.722Z,59.40
2019-02-10T22:11:21.058Z,60.07
2019-02-10T22:13:49.575Z,65.10
2019-02-10T22:16:18.879Z,67.17
2019-02-10T22:18:48.228Z,62.40
2019-02-10T22:21:17.544Z,64.77
2019-02-10T22:23:46.963Z,69.17
2019-02-10T22:26:16.274Z,60.43
2019-02-10T22:28:45.583Z,62.37
2019-02-10T22:31:18.893Z,58.93
2019-02-10T22:34:03.326Z,55.63
2019-02-10T22:36:31.847Z,54.90
2019-02-10T22:39:01.174Z,59.60
2019-02-10T22:41:29.784Z,54.17
2019-02-10T22:43:59.082Z,56.07
2019-02-10T22:46:28.525Z,66.17
2019-02-10T22:48:57.819Z,62.00
2019-02-10T22:51:27.127Z,63.43
2019-02-10T22:53:56.431Z,61.70
2019-02-10T22:56:24.843Z,57.60
2019-02-10T22:58:53.743Z,61.07
2019-02-10T23:01:23.170Z,62.13
2019-02-10T23:03:52.470Z,61.87
2019-02-10T23:06:21.780Z,60.00
2019-02-10T23:08:51.082Z,50.53
2019-02-10T23:11:20.392Z,51.90
2019-02-10T23:13:49.715Z,49.10
2019-02-10T23:16:19.026Z,50.80
2019-02-10T23:18:48.332Z,53.63
2019-02-10T23:21:17.641Z,54.20
2019-02-10T23:23:46.960Z,54.33
2019-02-10T23:26:16.259Z,57.60
2019-02-10T23:28:44.801Z,57.53
2019-02-10T23:33:57.192Z,63.93
2019-02-10T23:36:25.698Z,64.17
2019-02-10T23:38:55.154Z,72.87
2019-02-10T23:41:24.458Z,67.67
2019-02-10T23:43:53.779Z,69.47
2019-02-10T23:46:23.098Z,78.90
2019-02-10T23:48:52.409Z,72.77
2019-02-10T23:51:21.730Z,65.80
2019-02-10T23:53:51.037Z,68.67
2019-02-10T23:56:20.653Z,69.47
2019-02-10T23:58:49.166Z,65.03
